Flight Track Log - Related Links

Times and Time Zones

All times are in EDT time to prevent confusion due to time zone crossing. See the N1576C flight status page for this flight to view local times or setup timezone preferences in your user account.

Time Position Orientation Groundspeed Altitude Reporting Facility
EDT Latitude Longitude Course Direction KTS MPH feet Rate Location/Type
Sun 11:06:38 AM 27.2861 -80.8156 327° Northwest 100 115 7,500  Level Miami Center
Sun 11:07:38 AM 27.3125 -80.8350 327° Northwest 100 115 7,500  Level Miami Center
Sun 11:08:38 AM 27.3414 -80.8525 332° Northwest 100 115 7,500 -50 Level Miami Center
Sun 11:09:38 AM 27.3681 -80.8675 333° Northwest 100 115 7,400 -50 Descending Miami Center
Sun 11:10:38 AM 27.3928 -80.8847 328° Northwest 100 115 7,400 50 Level Miami Center
Sun 11:11:38 AM 27.4192 -80.9019 330° Northwest 100 115 7,500 50 Climbing Miami Center
Sun 11:12:38 AM 27.4439 -80.9144 336° Northwest 95 109 7,500  Level Miami Center
Sun 11:13:38 AM 27.4664 -80.9317 326° Northwest 95 109 7,500 -50 Level Miami Center
Sun 11:14:38 AM 27.4931 -80.9467 333° Northwest 95 109 7,400 -50 Descending Miami Center
Sun 11:15:38 AM 27.5178 -80.9639 328° Northwest 95 109 7,400  Level Miami Center
Sun 11:16:38 AM 27.5425 -80.9789 332° Northwest 100 115 7,400  Level Miami Center
Sun 11:17:38 AM 27.5692 -80.9939 333° Northwest 100 115 7,400 50 Level Miami Center
Sun 11:18:38 AM 27.5978 -81.0089 335° Northwest 100 115 7,500 100 Climbing Miami Center
Sun 11:19:38 AM 27.6222 -81.0286 324° Northwest 100 115 7,600  Climbing Miami Center
Sun 11:20:38 AM 27.6469 -81.0458 328° Northwest 95 109 7,500 -50 Descending Miami Center
Sun 11:21:38 AM 27.6736 -81.0611 333° Northwest 103 119 7,500 -50 Level Miami Center
Sun 11:22:38 AM 27.6983 -81.0736 336° Northwest 103 119 7,400  Descending Miami Center
Sun 11:23:38 AM 27.7269 -81.0911 332° Northwest 103 119 7,500 50 Climbing Miami Center
Sun 11:24:38 AM 27.7536 -81.1086 330° Northwest 108 124 7,500  Level Miami Center
Sun 11:25:38 AM 27.7803 -81.1258 330° Northwest 108 124 7,500  Level Miami Center
Sun 11:26:38 AM 27.8028 -81.1408 329° Northwest 103 119 7,500  Level Miami Center
Sun 11:27:38 AM 27.8294 -81.1558 334° Northwest 103 119 7,500 -50 Level Miami Center
Sun 11:28:38 AM 27.8561 -81.1733 330° Northwest 98 113 7,400 -150 Descending Miami Center
Sun 11:29:38 AM 27.8828 -81.1886 333° Northwest 98 113 7,200 -414 Descending Miami Center
Sun 11:30:34 AM 27.9167 -81.2000 343° North 110 127 6,600 -724 Descending Orlando TRACON
Sun 11:31:34 AM 27.9333 -81.2167 319° Northwest 118 136 5,800 -1,000 Descending Orlando TRACON
Sun 11:32:34 AM 27.9667 -81.2333 336° Northwest 124 143 4,600 -1,190 Descending Orlando TRACON
Sun 11:33:35 AM 28.0000 -81.2500 336° Northwest 125 144 3,400 -1,289 Descending Orlando TRACON
Sun 11:34:35 AM 28.0333 -81.2667 336° Northwest 123 142 2,000 -850 Descending Orlando TRACON
Sun 11:35:35 AM 28.0667 -81.3000 319° Northwest 121 139 1,700 -200 Descending Orlando TRACON
Sun 11:36:35 AM 28.0833 -81.3167 319° Northwest 115 132 1,600 -50 Descending Orlando TRACON
Sun 11:37:35 AM 28.1167 -81.3333 336° Northwest 110 127 1,600 -50 Level Orlando TRACON
Sun 11:38:35 AM 28.1333 -81.3500 319° Northwest 110 127 1,500 -200 Descending Orlando TRACON
Sun 11:39:35 AM 28.1667 -81.3500 360° North 111 128 1,200 -261 Descending Orlando TRACON
Sun 11:40:30 AM 28.1833 -81.3667 319° Northwest 97 112 1,000 -157 Descending Orlando TRACON
Sun 11:41:30 AM 28.2167 -81.3833 336° Northwest 111 128 900 -95 Descending Orlando TRACON
Sun 11:42:36 AM 28.2333 -81.4000 319° Northwest 80 92 800 -136 Descending Orlando TRACON
Sun 11:43:42 AM 28.2667 -81.4167 336° Northwest 89 102 600 -182 Descending Orlando TRACON
Sun 11:45:00 AM 28.2833 -81.4333 327° Northwest  Level FlightAware

Login

Don't have an account? Register now (free) for customized features, flight alerts, and more!